createdAt,value
2018-03-01T00:01:31.195Z,27.50
2018-03-01T00:04:02.625Z,31.00
2018-03-01T00:06:40.483Z,37.00
2018-03-01T00:09:12.669Z,34.00
2018-03-01T00:11:44.224Z,34.50
2018-03-01T00:14:15.664Z,39.00
2018-03-01T00:16:47.747Z,25.00
2018-03-01T00:19:19.585Z,34.00
2018-03-01T00:21:54.167Z,34.50
2018-03-01T00:24:26.755Z,36.50
2018-03-01T00:26:59.108Z,38.00
2018-03-01T00:29:31.691Z,29.50
2018-03-01T00:32:05.514Z,37.00
2018-03-01T00:34:37.859Z,34.50
2018-03-01T00:37:11.048Z,34.00
2018-03-01T00:39:47.345Z,38.00
2018-03-01T00:42:25.550Z,44.50
2018-03-01T00:44:57.716Z,34.50
2018-03-01T00:47:31.054Z,28.50
2018-03-01T00:50:05.639Z,37.00
2018-03-01T00:52:37.455Z,37.00
2018-03-01T00:55:09.789Z,35.00
2018-03-01T00:57:44.481Z,31.00
2018-03-01T01:00:20.057Z,32.50
2018-03-01T01:02:51.982Z,34.50
2018-03-01T01:05:28.412Z,37.50
2018-03-01T01:10:56.401Z,33.50
2018-03-01T01:13:30.071Z,45.50
2018-03-01T01:16:02.773Z,34.50
2018-03-01T01:18:35.710Z,31.00
2018-03-01T01:21:11.151Z,32.50
2018-03-01T01:23:51.410Z,36.00
2018-03-01T01:26:25.798Z,31.00
2018-03-01T01:28:58.071Z,33.50
2018-03-01T01:31:29.313Z,32.50
2018-03-01T01:34:01.514Z,32.00
2018-03-01T01:36:33.440Z,29.00
2018-03-01T01:39:06.691Z,37.50
2018-03-01T01:41:41.636Z,36.50
2018-03-01T01:44:22.029Z,38.00
2018-03-01T01:46:56.008Z,33.00
2018-03-01T01:49:27.053Z,28.00
2018-03-01T01:51:59.368Z,36.50
2018-03-01T01:54:31.179Z,35.50
2018-03-01T01:57:03.135Z,20.00
2018-03-01T01:59:37.951Z,27.50
2018-03-01T02:02:11.495Z,31.50
2018-03-01T02:04:44.482Z,34.50
2018-03-01T02:07:17.475Z,27.00
2018-03-01T02:09:50.388Z,47.50
2018-03-01T02:12:37.852Z,30.00
2018-03-01T02:15:15.871Z,36.50
2018-03-01T02:18:00.004Z,34.00
2018-03-01T02:23:39.263Z,32.00
2018-03-01T02:29:47.441Z,33.50
2018-03-01T02:32:20.093Z,30.50
2018-03-01T02:41:50.124Z,28.50
2018-03-01T02:44:50.014Z,38.00
2018-03-01T02:47:25.766Z,28.00
2018-03-01T02:49:57.839Z,30.00
2018-03-01T02:52:30.589Z,42.00
2018-03-01T02:55:02.961Z,39.00
2018-03-01T02:57:36.519Z,32.00
2018-03-01T03:00:18.417Z,30.50
2018-03-01T03:02:50.463Z,35.50
2018-03-01T03:05:22.177Z,32.00
2018-03-01T03:07:55.650Z,28.00
2018-03-01T03:10:28.979Z,33.50
2018-03-01T03:13:00.415Z,30.00
2018-03-01T03:15:33.055Z,32.00
2018-03-01T03:18:05.483Z,24.50
2018-03-01T03:20:37.618Z,44.00
2018-03-01T03:23:10.176Z,37.00
2018-03-01T03:25:55.981Z,28.00
2018-03-01T03:28:27.001Z,36.50
2018-03-01T03:30:59.699Z,25.00
2018-03-01T03:33:32.512Z,24.50
2018-03-01T03:36:06.002Z,33.00
2018-03-01T03:38:37.435Z,26.00
2018-03-01T03:41:08.429Z,33.00
2018-03-01T03:43:40.830Z,36.00
2018-03-01T03:46:20.152Z,31.00
2018-03-01T03:48:52.455Z,29.00
2018-03-01T03:51:26.890Z,34.50
2018-03-01T03:53:58.095Z,27.00
2018-03-01T03:56:30.905Z,23.00
2018-03-01T03:59:02.813Z,36.00
2018-03-01T04:04:37.295Z,31.00
2018-03-01T04:09:45.807Z,24.50
2018-03-01T04:12:17.276Z,28.00
2018-03-01T04:14:55.875Z,25.50
2018-03-01T04:17:28.620Z,30.00
2018-03-01T04:20:00.147Z,31.50
2018-03-01T04:22:32.282Z,33.50
2018-03-01T04:25:03.494Z,29.50
2018-03-01T04:27:39.703Z,28.50
2018-03-01T04:30:15.555Z,30.00
2018-03-01T04:32:48.384Z,28.50
2018-03-01T04:35:25.769Z,32.50
2018-03-01T04:37:57.590Z,28.50
2018-03-01T04:40:29.070Z,31.00
2018-03-01T04:43:06.986Z,32.50
2018-03-01T04:45:38.457Z,29.00
2018-03-01T04:48:09.284Z,40.00
2018-03-01T04:50:40.404Z,31.50
2018-03-01T04:53:11.955Z,30.50
2018-03-01T04:55:43.439Z,33.50
2018-03-01T04:58:14.155Z,28.00
2018-03-01T05:00:45.622Z,30.50
2018-03-01T05:03:16.768Z,32.00
2018-03-01T05:05:49.271Z,30.50
2018-03-01T05:08:24.873Z,26.50
2018-03-01T05:10:59.385Z,26.50
2018-03-01T05:13:30.697Z,29.00
2018-03-01T05:16:02.704Z,30.00
2018-03-01T05:18:35.491Z,34.50
2018-03-01T05:21:11.987Z,28.00
2018-03-01T05:23:43.525Z,38.00
2018-03-01T05:26:14.637Z,29.00
2018-03-01T05:28:46.509Z,40.50
2018-03-01T05:31:18.774Z,38.00
2018-03-01T05:33:55.707Z,29.50
2018-03-01T05:36:27.213Z,40.50
2018-03-01T05:38:58.737Z,36.50
2018-03-01T05:41:29.534Z,28.50
2018-03-01T05:49:19.572Z,36.00
2018-03-01T05:51:51.567Z,31.00
2018-03-01T05:54:24.529Z,33.00
2018-03-01T05:56:57.437Z,27.00
2018-03-01T05:59:28.768Z,34.50
2018-03-01T06:02:00.580Z,26.50
2018-03-01T06:04:31.928Z,35.50
2018-03-01T06:07:13.863Z,31.00
2018-03-01T06:09:46.019Z,39.50
2018-03-01T06:12:17.885Z,31.50
2018-03-01T06:14:50.104Z,29.00
2018-03-01T06:17:23.034Z,35.00
2018-03-01T06:20:05.349Z,25.50
2018-03-01T06:22:38.078Z,41.50
2018-03-01T06:25:09.623Z,29.00
2018-03-01T06:28:21.769Z,30.00
2018-03-01T06:31:19.256Z,32.00
2018-03-01T06:33:53.502Z,23.50
2018-03-01T06:36:26.006Z,31.50
2018-03-01T06:38:59.304Z,31.00
2018-03-01T06:41:31.641Z,30.50
2018-03-01T06:44:19.106Z,29.00
2018-03-01T06:47:00.047Z,36.00
2018-03-01T06:49:34.572Z,30.50
2018-03-01T06:52:08.627Z,30.50
2018-03-01T06:54:49.024Z,35.00
2018-03-01T06:57:25.521Z,33.50
2018-03-01T07:00:18.252Z,27.00
2018-03-01T07:02:56.966Z,31.00
2018-03-01T07:05:30.168Z,30.50
2018-03-01T07:08:01.730Z,36.50
2018-03-01T07:10:34.108Z,40.50
2018-03-01T07:13:06.857Z,34.00
2018-03-01T07:15:40.228Z,25.50
2018-03-01T07:18:14.920Z,38.00
2018-03-01T07:23:25.464Z,29.00
2018-03-01T07:25:57.150Z,30.00
2018-03-01T07:31:30.995Z,30.50
2018-03-01T07:34:18.867Z,32.00
2018-03-01T07:37:11.216Z,33.00
2018-03-01T07:39:46.410Z,28.50
2018-03-01T07:42:17.784Z,29.00
2018-03-01T07:44:48.703Z,31.00
2018-03-01T07:47:25.717Z,29.00
2018-03-01T07:52:37.581Z,44.50
2018-03-01T07:55:10.252Z,34.00
2018-03-01T07:57:45.062Z,28.00
2018-03-01T08:00:25.031Z,29.00
2018-03-01T08:03:02.979Z,33.00
2018-03-01T08:05:37.664Z,34.00
2018-03-01T08:08:14.700Z,32.50
2018-03-01T08:10:48.964Z,35.50
2018-03-01T08:13:31.313Z,29.50
2018-03-01T08:16:17.164Z,28.00
2018-03-01T08:18:52.736Z,28.50
2018-03-01T08:21:28.084Z,46.00
2018-03-01T08:29:12.624Z,34.50
2018-03-01T08:31:55.667Z,36.00
2018-03-01T08:34:32.311Z,28.00
2018-03-01T08:37:06.692Z,27.50
2018-03-01T08:39:42.934Z,33.00
2018-03-01T08:42:15.439Z,29.00
2018-03-01T08:44:48.254Z,36.00
2018-03-01T08:47:21.985Z,34.50
2018-03-01T08:50:15.300Z,35.00
2018-03-01T08:52:51.428Z,26.50
2018-03-01T08:55:32.434Z,49.50
2018-03-01T08:58:25.806Z,30.50
2018-03-01T09:01:07.618Z,29.00
2018-03-01T09:03:47.061Z,33.00
2018-03-01T09:06:34.417Z,30.00
2018-03-01T09:09:31.772Z,51.50
2018-03-01T09:12:12.501Z,36.50
2018-03-01T09:14:47.953Z,29.00
2018-03-01T09:17:39.150Z,38.00
2018-03-01T09:20:23.998Z,31.00
2018-03-01T09:22:57.155Z,37.00
2018-03-01T09:25:31.022Z,31.00
2018-03-01T09:28:26.438Z,29.00
2018-03-01T09:31:02.759Z,23.00
2018-03-01T09:33:38.318Z,36.00
2018-03-01T09:36:11.720Z,28.50
2018-03-01T09:38:44.410Z,34.00
2018-03-01T09:41:18.601Z,25.50
2018-03-01T09:44:01.595Z,31.00
2018-03-01T09:46:39.402Z,25.00
2018-03-01T09:49:12.338Z,27.00
2018-03-01T09:51:46.706Z,24.00
2018-03-01T09:54:22.528Z,27.00
2018-03-01T09:56:55.569Z,33.25
2018-03-01T09:59:28.833Z,27.75
2018-03-01T10:04:51.400Z,23.25
2018-03-01T10:07:27.992Z,28.75
2018-03-01T10:10:13.101Z,27.75
2018-03-01T10:12:48.468Z,24.00
2018-03-01T10:15:33.357Z,25.25
2018-03-01T10:18:10.418Z,27.00
2018-03-01T10:20:45.784Z,20.75
2018-03-01T10:23:20.178Z,24.25
2018-03-01T10:25:52.059Z,23.25
2018-03-01T10:28:27.055Z,27.00
2018-03-01T10:31:12.381Z,24.25
2018-03-01T10:36:42.360Z,24.25
2018-03-01T10:39:16.248Z,28.50
2018-03-01T10:41:48.708Z,19.50
2018-03-01T10:44:20.427Z,27.75
2018-03-01T10:46:55.332Z,23.25
2018-03-01T10:49:28.326Z,24.25
2018-03-01T10:52:20.961Z,31.00
2018-03-01T10:55:08.488Z,25.25
2018-03-01T10:57:43.523Z,26.25
2018-03-01T11:00:25.081Z,28.50
2018-03-01T11:03:12.540Z,19.50
2018-03-01T11:05:44.478Z,22.50
2018-03-01T11:08:15.492Z,21.75
2018-03-01T11:10:47.996Z,41.00
2018-03-01T11:13:26.753Z,27.75
2018-03-01T11:16:00.178Z,23.25
2018-03-01T11:18:33.683Z,29.00
2018-03-01T11:21:26.657Z,23.75
2018-03-01T11:23:57.750Z,23.50
2018-03-01T11:26:29.558Z,27.75
2018-03-01T11:29:05.461Z,26.50
2018-03-01T11:31:47.607Z,23.75
2018-03-01T11:34:26.039Z,26.75
2018-03-01T11:39:44.334Z,24.00
2018-03-01T11:42:16.776Z,24.00
2018-03-01T11:44:48.142Z,29.50
2018-03-01T11:47:21.990Z,31.50
2018-03-01T11:49:54.186Z,22.50
2018-03-01T11:52:25.766Z,27.75
2018-03-01T11:55:00.946Z,24.00
2018-03-01T11:57:32.221Z,25.25
2018-03-01T12:00:09.484Z,30.50
2018-03-01T12:05:25.903Z,25.50
2018-03-01T12:07:59.177Z,24.25
2018-03-01T12:10:30.844Z,24.50
2018-03-01T12:13:07.416Z,21.00
2018-03-01T12:15:40.493Z,23.50
2018-03-01T12:18:13.293Z,30.50
2018-03-01T12:20:44.592Z,25.75
2018-03-01T12:23:24.635Z,21.25
2018-03-01T12:25:58.198Z,29.75
2018-03-01T12:28:29.389Z,28.25
2018-03-01T12:31:01.239Z,22.00
2018-03-01T12:33:32.336Z,29.25
2018-03-01T12:38:44.239Z,20.25
2018-03-01T12:41:21.264Z,26.25
2018-03-01T12:43:52.792Z,25.50
2018-03-01T12:46:23.935Z,24.50
2018-03-01T12:49:02.425Z,22.50
2018-03-01T12:51:35.250Z,26.00
2018-03-01T12:54:08.660Z,25.75
2018-03-01T12:56:41.949Z,23.75
2018-03-01T12:59:14.273Z,16.25
2018-03-01T13:01:47.072Z,25.75
2018-03-01T13:04:20.491Z,27.00
2018-03-01T13:06:52.466Z,24.50
2018-03-01T13:09:23.905Z,26.50
2018-03-01T13:11:54.890Z,24.25
2018-03-01T13:14:26.022Z,24.00
2018-03-01T13:16:57.355Z,25.50
2018-03-01T13:19:28.458Z,25.50
2018-03-01T13:22:06.204Z,24.25
2018-03-01T13:24:38.054Z,26.25
2018-03-01T13:27:11.247Z,29.50
2018-03-01T13:29:43.301Z,27.00
2018-03-01T13:32:15.599Z,32.00
2018-03-01T13:37:30.718Z,26.25
2018-03-01T13:40:04.085Z,24.00
2018-03-01T13:42:39.768Z,27.50
2018-03-01T13:45:22.187Z,33.75
2018-03-01T13:48:00.121Z,25.75
2018-03-01T13:50:32.823Z,26.25
2018-03-01T13:53:07.450Z,27.25
2018-03-01T13:55:44.228Z,28.50
2018-03-01T13:58:16.039Z,28.00
2018-03-01T14:00:47.492Z,22.00
2018-03-01T14:03:19.798Z,30.25
2018-03-01T14:05:51.613Z,22.25
2018-03-01T14:08:23.364Z,30.50
2018-03-01T14:10:54.945Z,25.00
2018-03-01T14:13:29.405Z,26.50
2018-03-01T14:16:00.955Z,26.25
2018-03-01T14:18:34.243Z,25.00
2018-03-01T14:21:08.158Z,21.25
2018-03-01T14:23:39.790Z,30.00
2018-03-01T14:26:11.298Z,21.00
2018-03-01T14:28:42.570Z,26.00
2018-03-01T14:31:14.216Z,25.50
2018-03-01T14:33:46.702Z,29.50
2018-03-01T14:36:20.231Z,26.00
2018-03-01T14:38:51.572Z,25.00
2018-03-01T14:41:30.940Z,25.50
2018-03-01T14:44:04.452Z,23.75
2018-03-01T14:46:36.723Z,24.25
2018-03-01T14:49:07.754Z,25.50
2018-03-01T14:51:38.555Z,22.75
2018-03-01T14:54:10.996Z,24.50
2018-03-01T14:57:01.932Z,32.75
2018-03-01T14:59:50.665Z,24.25
2018-03-01T15:02:46.390Z,23.75
2018-03-01T15:07:59.436Z,25.00
2018-03-01T15:10:30.655Z,23.00
2018-03-01T15:13:03.472Z,28.50
2018-03-01T15:15:43.395Z,25.50
2018-03-01T15:18:14.579Z,29.75
2018-03-01T15:20:47.070Z,25.25
2018-03-01T15:23:17.869Z,29.00
2018-03-01T15:25:49.025Z,23.25
2018-03-01T15:28:20.236Z,27.25
2018-03-01T15:30:51.298Z,25.25
2018-03-01T15:33:22.217Z,39.75
2018-03-01T15:36:22.987Z,26.00
2018-03-01T15:38:55.889Z,26.75
2018-03-01T15:41:39.222Z,31.75
2018-03-01T15:44:11.878Z,22.25
2018-03-01T15:46:43.804Z,26.75
2018-03-01T15:49:14.813Z,26.50
2018-03-01T15:51:46.682Z,29.25
2018-03-01T15:54:18.199Z,29.75
2018-03-01T15:56:49.675Z,30.50
2018-03-01T15:59:21.055Z,29.25
2018-03-01T16:01:56.957Z,31.50
2018-03-01T16:04:40.055Z,32.75
2018-03-01T16:07:12.178Z,28.25
2018-03-01T16:09:43.620Z,29.50
2018-03-01T16:12:14.401Z,30.25
2018-03-01T16:14:46.042Z,30.25
2018-03-01T16:17:17.397Z,33.50
2018-03-01T16:19:48.643Z,30.75
2018-03-01T16:22:20.397Z,32.75
2018-03-01T16:27:51.478Z,29.75
2018-03-01T16:30:23.931Z,37.75
2018-03-01T16:32:54.825Z,33.50
2018-03-01T16:40:57.981Z,31.00
2018-03-01T16:43:28.612Z,31.50
2018-03-01T16:46:00.623Z,26.75
2018-03-01T16:48:44.582Z,28.50
2018-03-01T16:51:18.211Z,29.50
2018-03-01T16:53:49.008Z,30.25
2018-03-01T16:56:20.454Z,31.50
2018-03-01T16:58:52.054Z,36.25
2018-03-01T17:01:33.826Z,31.25
2018-03-01T17:04:16.211Z,33.50
2018-03-01T17:06:47.367Z,31.25
2018-03-01T17:09:19.990Z,30.50
2018-03-01T17:12:05.795Z,38.00
2018-03-01T17:14:38.048Z,32.00
2018-03-01T17:17:09.316Z,33.50
2018-03-01T17:19:51.175Z,32.00
2018-03-01T17:22:22.546Z,29.50
2018-03-01T17:24:53.858Z,29.75
2018-03-01T17:27:26.066Z,34.75
2018-03-01T17:30:04.384Z,36.00
2018-03-01T17:32:47.237Z,32.50
2018-03-01T17:35:18.521Z,37.50
2018-03-01T17:37:49.906Z,41.75
2018-03-01T17:40:21.072Z,36.50
2018-03-01T17:42:52.392Z,36.00
2018-03-01T17:45:24.687Z,31.00
2018-03-01T17:47:56.712Z,37.50
2018-03-01T17:50:27.608Z,35.75
2018-03-01T17:52:59.550Z,31.50
2018-03-01T17:58:08.262Z,31.00
2018-03-01T18:00:51.612Z,38.75
2018-03-01T18:03:43.399Z,40.50
2018-03-01T18:06:14.915Z,37.50
2018-03-01T18:08:45.741Z,41.75
2018-03-01T18:11:16.829Z,40.75
2018-03-01T18:13:47.515Z,44.75
2018-03-01T18:16:18.506Z,37.50
2018-03-01T18:18:49.584Z,45.75
2018-03-01T18:21:52.696Z,34.75
2018-03-01T18:24:23.929Z,39.50
2018-03-01T18:26:55.571Z,37.75
2018-03-01T18:29:27.116Z,38.50
2018-03-01T18:32:02.046Z,50.50
2018-03-01T18:34:35.911Z,42.50
2018-03-01T18:37:09.967Z,45.50
2018-03-01T18:39:44.181Z,32.50
2018-03-01T18:42:24.605Z,37.50
2018-03-01T18:44:57.525Z,39.00
2018-03-01T18:47:30.618Z,44.50
2018-03-01T18:50:09.597Z,39.00
2018-03-01T18:55:35.670Z,35.50
2018-03-01T18:58:18.248Z,39.50
2018-03-01T19:00:56.256Z,35.00
2018-03-01T19:03:39.119Z,33.00
2018-03-01T19:06:23.184Z,38.00
2018-03-01T19:08:55.045Z,41.50
2018-03-01T19:11:28.340Z,41.50
2018-03-01T19:13:59.947Z,38.00
2018-03-01T19:16:31.100Z,54.50
2018-03-01T19:19:03.233Z,41.00
2018-03-01T19:21:36.717Z,50.00
2018-03-01T19:24:08.749Z,59.50
2018-03-01T19:26:39.800Z,40.00
2018-03-01T19:29:26.839Z,47.00
2018-03-01T19:32:01.708Z,45.00
2018-03-01T19:34:35.330Z,40.50
2018-03-01T19:37:13.635Z,47.00
2018-03-01T19:39:49.146Z,43.00
2018-03-01T19:42:32.281Z,43.00
2018-03-01T19:45:32.634Z,39.50
2018-03-01T19:48:14.548Z,38.50
2018-03-01T19:50:50.660Z,53.00
2018-03-01T19:56:11.247Z,40.00
2018-03-01T19:58:49.089Z,38.00
2018-03-01T20:01:29.760Z,38.50
2018-03-01T20:04:03.030Z,40.00
2018-03-01T20:06:34.952Z,45.00
2018-03-01T20:09:10.215Z,39.50
2018-03-01T20:11:43.133Z,39.00
2018-03-01T20:14:17.351Z,41.00
2018-03-01T20:16:49.434Z,34.50
2018-03-01T20:19:23.515Z,43.00
2018-03-01T20:21:54.316Z,43.50
2018-03-01T20:24:25.982Z,46.50
2018-03-01T20:26:57.136Z,41.00
2018-03-01T20:29:28.894Z,39.50
2018-03-01T20:32:01.714Z,47.00
2018-03-01T20:34:34.664Z,41.50
2018-03-01T20:37:06.594Z,43.50
2018-03-01T20:39:37.921Z,36.50
2018-03-01T20:42:09.503Z,47.50
2018-03-01T20:44:41.185Z,41.00
2018-03-01T20:47:14.238Z,44.00
2018-03-01T20:49:52.525Z,44.00
2018-03-01T20:52:25.684Z,35.50
2018-03-01T20:57:55.735Z,41.50
2018-03-01T21:00:29.686Z,46.50
2018-03-01T21:03:01.957Z,47.00
2018-03-01T21:05:34.051Z,47.00
2018-03-01T21:08:07.479Z,43.00
2018-03-01T21:10:38.575Z,43.50
2018-03-01T21:13:10.731Z,44.00
2018-03-01T21:15:43.527Z,45.00
2018-03-01T21:18:15.027Z,44.00
2018-03-01T21:20:51.508Z,47.00
2018-03-01T21:23:28.981Z,42.00
2018-03-01T21:25:59.954Z,43.00
2018-03-01T21:28:34.904Z,45.00
2018-03-01T21:31:19.733Z,40.00
2018-03-01T21:33:56.785Z,44.00
2018-03-01T21:36:27.916Z,36.00
2018-03-01T21:38:58.620Z,50.50
2018-03-01T21:41:29.948Z,42.00
2018-03-01T21:44:01.684Z,40.00
2018-03-01T21:46:45.266Z,40.00
2018-03-01T21:49:16.268Z,39.50
2018-03-01T21:51:49.325Z,42.50
2018-03-01T21:54:23.187Z,39.50
2018-03-01T21:56:55.732Z,43.00
2018-03-01T21:59:32.306Z,40.50
2018-03-01T22:02:03.951Z,43.50
2018-03-01T22:04:35.510Z,35.50
2018-03-01T22:07:11.258Z,47.00
2018-03-01T22:09:56.842Z,44.50
2018-03-01T22:12:28.279Z,42.00
2018-03-01T22:15:05.031Z,39.50
2018-03-01T22:20:23.995Z,45.00
2018-03-01T22:24:10.631Z,47.50
2018-03-01T22:26:43.035Z,44.50
2018-03-01T22:29:19.210Z,40.50
2018-03-01T22:31:53.666Z,33.50
2018-03-01T22:34:26.205Z,42.50
2018-03-01T22:37:02.415Z,45.50
2018-03-01T22:39:41.437Z,41.50
2018-03-01T22:42:14.803Z,43.00
2018-03-01T22:44:49.040Z,46.50
2018-03-01T22:47:30.563Z,39.00
2018-03-01T22:50:02.454Z,44.50
2018-03-01T22:52:34.352Z,45.00
2018-03-01T22:55:08.238Z,39.50
2018-03-01T22:57:45.004Z,45.00
2018-03-01T23:00:47.052Z,40.50
2018-03-01T23:03:51.331Z,43.00
2018-03-01T23:06:23.241Z,51.50
2018-03-01T23:08:55.424Z,40.00
2018-03-01T23:11:28.750Z,52.50
2018-03-01T23:14:00.294Z,47.00
2018-03-01T23:16:33.767Z,45.50
2018-03-01T23:19:06.417Z,46.00
2018-03-01T23:21:38.367Z,46.00
2018-03-01T23:24:09.706Z,44.00
2018-03-01T23:26:40.711Z,50.00
2018-03-01T23:29:13.188Z,47.00
2018-03-01T23:31:45.418Z,45.50
2018-03-01T23:34:17.243Z,41.50
2018-03-01T23:36:50.451Z,40.00
2018-03-01T23:39:34.085Z,46.50
2018-03-01T23:42:07.701Z,43.00
2018-03-01T23:44:43.029Z,42.00
2018-03-01T23:47:23.312Z,47.00
2018-03-01T23:49:59.166Z,41.00
2018-03-01T23:55:09.633Z,44.00
2018-03-01T23:57:40.527Z,40.50
